Time;durP1;ratioP1;P1;durP2;ratioP2;P2;SDS_P1;SDS_P2;PMS_P1;PMS_P2;Temp;Humidity;BMP_temperature;BMP_pressure;BME280_temperature;BME280_humidity;BME280_pressure;Samples;Min_cycle;Max_cycle;Signal;HPM_P1;HPM_P2
2022/12/20 00:00:48;;;;;;;;;;;;;;;8.71;100.00;101236.44;5087377;28;19938;-73
2022/12/20 00:03:13;;;;;;;;;;;;;;;8.73;100.00;101244.19;5088386;28;20030;-73
2022/12/20 00:05:39;;;;;;;;;;;;;;;8.70;100.00;101244.44;5088134;28;20266;-73
2022/12/20 00:08:05;;;;;;;;;;;;;;;8.72;100.00;101247.78;5088227;28;19935;-74
2022/12/20 00:10:30;;;;;;;;;;;;;;;8.69;100.00;101241.00;5087859;28;19919;-73
2022/12/20 00:12:55;;;;;;;;;;;;;;;8.73;100.00;101247.66;5085383;28;20247;-73
2022/12/20 00:15:20;;;;;;;;;;;;;;;8.75;100.00;101245.72;5087708;28;19915;-73
2022/12/20 00:17:46;;;;;;;;;;;;;;;8.76;100.00;101257.09;5088153;28;19923;-73
2022/12/20 00:20:11;;;;;;;;;;;;;;;8.78;100.00;101256.00;5087460;28;20359;-73
2022/12/20 00:22:36;;;;;;;;;;;;;;;8.76;100.00;101247.41;5087878;28;20015;-73
2022/12/20 00:25:02;;;;;;;;;;;;;;;8.72;100.00;101243.34;5086698;28;20328;-73
2022/12/20 00:27:27;;;;;;;;;;;;;;;8.73;100.00;101244.19;5087862;28;20352;-73
2022/12/20 00:29:52;;;;;;;;;;;;;;;8.68;100.00;101249.00;5087895;28;20130;-73
2022/12/20 00:32:18;;;;;;;;;;;;;;;8.64;100.00;101246.63;5088140;28;20398;-73
2022/12/20 00:34:43;;;;;;;;;;;;;;;8.54;100.00;101248.34;5087457;28;19922;-73
2022/12/20 00:37:08;;;;;;;;;;;;;;;8.50;100.00;101236.41;5086784;28;19943;-73
2022/12/20 00:39:33;;;;;;;;;;;;;;;8.43;100.00;101243.97;5087673;28;20093;-74
2022/12/20 00:41:58;;;;;;;;;;;;;;;8.38;100.00;101245.28;5087218;28;19923;-73
2022/12/20 00:44:24;;;;;;;;;;;;;;;8.40;100.00;101232.84;5086729;28;19927;-74
2022/12/20 00:46:49;;;;;;;;;;;;;;;8.40;100.00;101231.06;5069731;28;19922;-73
2022/12/20 00:49:15;;;;;;;;;;;;;;;8.48;100.00;101230.44;5087995;28;19919;-73
2022/12/20 00:51:40;;;;;;;;;;;;;;;8.48;100.00;101225.19;5086538;28;19919;-73
2022/12/20 00:54:05;;;;;;;;;;;;;;;8.51;100.00;101230.16;5087904;28;19920;-74
2022/12/20 00:56:31;;;;;;;;;;;;;;;8.55;100.00;101226.34;5091887;28;20394;-74
2022/12/20 00:58:57;;;;;;;;;;;;;;;8.61;100.00;101217.09;5089312;28;19919;-74
2022/12/20 01:01:24;;;;;;;;;;;;;;;8.65;100.00;101215.88;5091825;28;20115;-74
2022/12/20 01:03:50;;;;;;;;;;;;;;;8.63;100.00;101210.75;5089843;28;20363;-74
2022/12/20 01:06:16;;;;;;;;;;;;;;;8.63;100.00;101200.22;5090553;28;20375;-73
2022/12/20 01:08:41;;;;;;;;;;;;;;;8.68;100.00;101196.38;5091446;28;19916;-74
2022/12/20 01:11:20;;;;;;;;;;;;;;;8.70;100.00;101191.81;5090415;28;19912;-74
2022/12/20 01:13:47;;;;;;;;;;;;;;;8.70;100.00;101182.13;5090623;28;19912;-74
2022/12/20 01:16:17;;;;;;;;;;;;;;;8.73;100.00;101183.66;5090400;28;19969;-74
2022/12/20 01:18:43;;;;;;;;;;;;;;;8.69;100.00;101175.19;5089100;28;19949;-74
2022/12/20 01:21:10;;;;;;;;;;;;;;;8.69;100.00;101182.25;5090932;28;19912;-74
2022/12/20 01:23:35;;;;;;;;;;;;;;;8.72;100.00;101177.56;5090432;28;20295;-73
2022/12/20 01:26:01;;;;;;;;;;;;;;;8.73;100.00;101173.13;5089254;28;20128;-73
2022/12/20 01:28:27;;;;;;;;;;;;;;;8.76;100.00;101175.53;5090412;28;19916;-73
2022/12/20 01:30:52;;;;;;;;;;;;;;;8.76;100.00;101172.88;5090442;28;20358;-73
2022/12/20 01:33:18;;;;;;;;;;;;;;;8.85;100.00;101180.00;5090643;28;19926;-73
2022/12/20 01:35:53;;;;;;;;;;;;;;;8.82;100.00;101169.75;5090067;28;19950;-73
2022/12/20 01:38:19;;;;;;;;;;;;;;;8.86;100.00;101165.84;5091937;28;20290;-73
2022/12/20 01:40:44;;;;;;;;;;;;;;;8.83;100.00;101163.50;5090655;28;20204;-74
2022/12/20 01:43:11;;;;;;;;;;;;;;;8.87;100.00;101153.56;5089691;28;19928;-73
2022/12/20 01:45:36;;;;;;;;;;;;;;;8.88;100.00;101161.28;5090156;28;20029;-73
2022/12/20 01:48:02;;;;;;;;;;;;;;;8.88;100.00;101156.03;5090410;28;19920;-73
2022/12/20 01:50:27;;;;;;;;;;;;;;;8.85;100.00;101156.31;5090967;28;20286;-73
2022/12/20 01:52:53;;;;;;;;;;;;;;;8.92;100.00;101144.28;5089426;28;20001;-73
2022/12/20 01:55:24;;;;;;;;;;;;;;;8.89;100.00;101138.47;5089863;28;19923;-73
2022/12/20 01:57:58;;;;;;;;;;;;;;;8.91;100.00;101141.78;5089915;28;20421;-73
2022/12/20 02:00:23;;;;;;;;;;;;;;;8.88;100.00;101139.41;5090464;28;20109;-73
2022/12/20 02:02:49;;;;;;;;;;;;;;;8.87;100.00;101125.41;5090445;28;20098;-73
2022/12/20 02:05:14;;;;;;;;;;;;;;;8.84;100.00;101129.16;5088606;28;19916;-74
2022/12/20 02:07:42;;;;;;;;;;;;;;;8.78;100.00;101128.84;5090533;28;19954;-73
2022/12/20 02:10:09;;;;;;;;;;;;;;;8.80;100.00;101121.66;5088947;28;19911;-73
2022/12/20 02:12:40;;;;;;;;;;;;;;;8.77;100.00;101132.44;5089863;28;19919;-73
2022/12/20 02:15:15;;;;;;;;;;;;;;;8.75;100.00;101132.56;5090653;28;20010;-73
2022/12/20 02:17:50;;;;;;;;;;;;;;;8.75;100.00;101134.34;5090798;28;19912;-73
2022/12/20 02:20:16;;;;;;;;;;;;;;;8.72;100.00;101132.81;5089403;28;20002;-73
2022/12/20 02:22:41;;;;;;;;;;;;;;;8.68;100.00;101134.06;5089492;28;20010;-73
2022/12/20 02:25:19;;;;;;;;;;;;;;;8.73;100.00;101128.41;5089305;28;19951;-73
2022/12/20 02:28:04;;;;;;;;;;;;;;;8.74;100.00;101115.13;5089486;28;19945;-73
2022/12/20 02:30:34;;;;;;;;;;;;;;;8.75;100.00;101116.75;5088316;28;19976;-73
2022/12/20 02:33:06;;;;;;;;;;;;;;;8.75;100.00;101119.41;5089276;28;20395;-74
2022/12/20 02:35:32;;;;;;;;;;;;;;;8.74;100.00;101109.03;5088254;28;19982;-73
2022/12/20 02:37:59;;;;;;;;;;;;;;;8.77;100.00;101108.75;5089067;28;19912;-74
2022/12/20 02:40:31;;;;;;;;;;;;;;;8.80;100.00;101108.50;5089007;28;20705;-73
2022/12/20 02:43:01;;;;;;;;;;;;;;;8.80;100.00;101109.31;5089267;28;20272;-73
2022/12/20 02:45:32;;;;;;;;;;;;;;;8.78;100.00;101103.38;5088737;28;19963;-73
2022/12/20 02:48:06;;;;;;;;;;;;;;;8.78;100.00;101107.81;5088116;28;19916;-73
2022/12/20 02:50:44;;;;;;;;;;;;;;;8.77;100.00;101104.31;5088517;28;19912;-73
2022/12/20 02:53:10;;;;;;;;;;;;;;;8.80;100.00;101109.31;5088073;28;20439;-73
2022/12/20 02:55:46;;;;;;;;;;;;;;;8.82;100.00;101098.69;5089258;28;19915;-73
2022/12/20 02:58:25;;;;;;;;;;;;;;;8.84;100.00;101099.34;5088442;28;19911;-73
2022/12/20 03:00:53;;;;;;;;;;;;;;;8.87;100.00;101093.00;5087478;28;19911;-73
2022/12/20 03:03:21;;;;;;;;;;;;;;;8.87;100.00;101099.09;5088785;28;19919;-73
2022/12/20 03:05:48;;;;;;;;;;;;;;;8.87;100.00;101093.84;5089150;28;20654;-73
2022/12/20 03:08:13;;;;;;;;;;;;;;;8.92;100.00;101096.91;5087651;28;20202;-73
2022/12/20 03:10:38;;;;;;;;;;;;;;;8.86;100.00;101089.53;5086856;28;19968;-73
2022/12/20 03:13:03;;;;;;;;;;;;;;;8.83;100.00;101082.72;5087049;28;19916;-73
2022/12/20 03:15:29;;;;;;;;;;;;;;;8.77;100.00;101080.63;5087535;28;20006;-73
2022/12/20 03:17:54;;;;;;;;;;;;;;;8.79;100.00;101086.59;5086699;28;20034;-73
2022/12/20 03:20:19;;;;;;;;;;;;;;;8.75;100.00;101100.97;5087229;28;20000;-73
2022/12/20 03:22:44;;;;;;;;;;;;;;;8.70;100.00;101104.97;5088010;28;19915;-73
2022/12/20 03:25:10;;;;;;;;;;;;;;;8.71;100.00;101109.28;5088152;28;19919;-74
2022/12/20 03:27:35;;;;;;;;;;;;;;;8.74;100.00;101104.59;5087507;28;19916;-74
2022/12/20 03:30:00;;;;;;;;;;;;;;;8.76;100.00;101113.19;5086401;28;19922;-73
2022/12/20 03:32:25;;;;;;;;;;;;;;;8.73;100.00;101112.59;5086221;28;19916;-74
2022/12/20 03:34:51;;;;;;;;;;;;;;;8.77;100.00;101112.19;5087865;28;19915;-73
2022/12/20 03:37:16;;;;;;;;;;;;;;;8.72;100.00;101114.41;5094068;28;19977;-74
2022/12/20 03:39:41;;;;;;;;;;;;;;;8.70;100.00;101116.34;5085360;28;19916;-73
2022/12/20 03:42:07;;;;;;;;;;;;;;;8.70;100.00;101118.13;5085102;28;19927;-73
2022/12/20 03:44:32;;;;;;;;;;;;;;;8.69;100.00;101126.97;5087694;28;19920;-73
2022/12/20 03:46:57;;;;;;;;;;;;;;;8.72;100.00;101130.19;5086280;28;19920;-73
2022/12/20 03:49:22;;;;;;;;;;;;;;;8.68;100.00;101125.31;5087048;28;20239;-73
2022/12/20 03:51:48;;;;;;;;;;;;;;;8.72;100.00;101124.94;5086040;28;20018;-74
2022/12/20 03:54:13;;;;;;;;;;;;;;;8.77;100.00;101148.22;5087511;28;20419;-74
2022/12/20 03:56:38;;;;;;;;;;;;;;;8.82;100.00;101146.06;5086541;28;19915;-73
2022/12/20 03:59:03;;;;;;;;;;;;;;;8.78;100.00;101137.56;5087429;28;19916;-73
2022/12/20 04:01:29;;;;;;;;;;;;;;;8.82;100.00;101146.06;5085654;28;19916;-74
2022/12/20 04:03:54;;;;;;;;;;;;;;;8.84;100.00;101152.84;5087224;28;19924;-73
2022/12/20 04:06:20;;;;;;;;;;;;;;;8.81;100.00;101168.88;5049200;28;1083898;-73
2022/12/20 04:08:45;;;;;;;;;;;;;;;8.84;100.00;101159.88;5086889;28;19992;-73
2022/12/20 04:11:17;;;;;;;;;;;;;;;8.78;100.00;101169.16;5094852;28;19919;-73
2022/12/20 04:13:43;;;;;;;;;;;;;;;8.80;100.00;101169.84;5087809;28;19915;-74
2022/12/20 04:16:09;;;;;;;;;;;;;;;8.77;100.00;101156.94;5088152;28;20359;-73
2022/12/20 04:18:34;;;;;;;;;;;;;;;8.80;100.00;101156.69;5087194;28;19916;-73
2022/12/20 04:20:59;;;;;;;;;;;;;;;8.84;100.00;101167.78;5087053;28;20038;-73
2022/12/20 04:23:25;;;;;;;;;;;;;;;8.84;100.00;101162.50;5087621;28;19916;-74
2022/12/20 04:25:50;;;;;;;;;;;;;;;8.81;100.00;101162.78;5086550;28;19926;-74
2022/12/20 04:28:15;;;;;;;;;;;;;;;8.84;100.00;101168.63;5090989;28;20329;-73
2022/12/20 04:30:40;;;;;;;;;;;;;;;8.85;100.00;101166.84;5091107;28;19916;-73
2022/12/20 04:33:06;;;;;;;;;;;;;;;8.83;100.00;101158.22;5091530;28;20019;-74
2022/12/20 04:35:31;;;;;;;;;;;;;;;8.85;100.00;101154.50;5074346;28;20002;-74
2022/12/20 04:37:57;;;;;;;;;;;;;;;8.91;100.00;101153.16;5092262;28;20089;-73
2022/12/20 04:40:22;;;;;;;;;;;;;;;8.94;100.00;101155.50;5091169;28;19920;-73
2022/12/20 04:42:47;;;;;;;;;;;;;;;8.97;100.00;101147.38;5090175;28;19923;-73
2022/12/20 04:45:12;;;;;;;;;;;;;;;8.98;100.00;101142.94;5091914;28;19989;-74
2022/12/20 04:47:37;;;;;;;;;;;;;;;9.02;100.00;101152.22;5091299;28;19920;-74
2022/12/20 04:50:03;;;;;;;;;;;;;;;9.03;100.00;101146.81;5090473;28;19920;-73
2022/12/20 04:55:12;;;;;;;;;;;;;;;9.07;100.00;101127.16;5092082;28;19969;-73
2022/12/20 04:57:37;;;;;;;;;;;;;;;9.13;100.00;101146.88;5091072;28;19916;-73
2022/12/20 05:00:03;;;;;;;;;;;;;;;9.14;100.00;101137.16;5090317;28;19928;-74
2022/12/20 05:02:28;;;;;;;;;;;;;;;9.17;100.00;101139.53;5090607;28;19915;-73
2022/12/20 05:04:53;;;;;;;;;;;;;;;9.18;100.00;101136.75;5091657;28;20255;-73
2022/12/20 05:07:19;;;;;;;;;;;;;;;9.19;100.00;101127.03;5090085;28;19923;-73
2022/12/20 05:09:44;;;;;;;;;;;;;;;9.18;100.00;101126.22;5091979;28;20388;-73
2022/12/20 05:12:09;;;;;;;;;;;;;;;9.23;100.00;101120.53;5089560;28;20708;-73
2022/12/20 05:14:34;;;;;;;;;;;;;;;9.21;100.00;101127.75;5090734;28;20518;-73
2022/12/20 05:16:59;;;;;;;;;;;;;;;9.23;100.00;101123.19;5090681;28;20484;-73
2022/12/20 05:19:25;;;;;;;;;;;;;;;9.30;100.00;101111.16;5089883;28;20456;-73
2022/12/20 05:27:17;;;;;;;;;;;;;;;9.37;100.00;101098.28;5090981;28;19926;-74
2022/12/20 05:29:43;;;;;;;;;;;;;;;9.37;100.00;101093.84;5090784;28;19916;-74
2022/12/20 05:32:08;;;;;;;;;;;;;;;9.40;100.00;101090.09;5088343;28;19962;-74
2022/12/20 05:34:33;;;;;;;;;;;;;;;9.47;100.00;101092.06;5092427;28;19962;-72
2022/12/20 05:36:58;;;;;;;;;;;;;;;9.46;100.00;101103.56;5092475;28;19926;-74
2022/12/20 05:39:24;;;;;;;;;;;;;;;9.53;100.00;101087.19;5090256;28;20436;-74
2022/12/20 05:41:49;;;;;;;;;;;;;;;9.52;100.00;101081.09;5090501;28;19924;-74
2022/12/20 05:44:16;;;;;;;;;;;;;;;9.57;100.00;101075.41;5090149;28;19980;-73
2022/12/20 05:46:41;;;;;;;;;;;;;;;9.57;100.00;101070.16;5090682;28;19990;-74
2022/12/20 05:49:06;;;;;;;;;;;;;;;9.53;100.00;101068.75;5090071;28;19923;-74
2022/12/20 05:51:31;;;;;;;;;;;;;;;9.56;100.00;101065.84;5089812;28;19916;-74
2022/12/20 05:53:57;;;;;;;;;;;;;;;9.56;100.00;101063.19;5091397;28;20390;-74
2022/12/20 05:56:22;;;;;;;;;;;;;;;9.60;100.00;101056.69;5090077;28;20570;-74
2022/12/20 05:58:47;;;;;;;;;;;;;;;9.56;100.00;101055.28;5090666;28;20386;-74
2022/12/20 06:01:12;;;;;;;;;;;;;;;9.59;100.00;101057.66;5091001;28;19998;-73
2022/12/20 06:03:39;;;;;;;;;;;;;;;9.60;100.00;101048.78;5090254;28;20369;-74
2022/12/20 06:06:04;;;;;;;;;;;;;;;9.64;100.00;101044.91;5087073;28;19931;-73
2022/12/20 06:08:30;;;;;;;;;;;;;;;9.66;100.00;101054.31;5087323;28;19935;-73
2022/12/20 06:10:55;;;;;;;;;;;;;;;9.70;100.00;101054.88;5088331;28;19931;-74
2022/12/20 06:13:21;;;;;;;;;;;;;;;9.77;100.00;101040.19;5089118;28;19927;-73
2022/12/20 06:15:46;;;;;;;;;;;;;;;9.76;100.00;101041.16;5087709;28;20051;-74
2022/12/20 06:18:12;;;;;;;;;;;;;;;9.76;100.00;101041.16;5086799;28;20361;-73
2022/12/20 06:20:38;;;;;;;;;;;;;;;9.78;100.00;101041.03;5087878;28;20272;-74
2022/12/20 06:23:03;;;;;;;;;;;;;;;9.75;100.00;101036.84;5086643;28;19947;-74
2022/12/20 06:25:29;;;;;;;;;;;;;;;9.78;100.00;101035.75;5089628;28;20017;-73
2022/12/20 06:27:55;;;;;;;;;;;;;;;9.76;100.00;101038.53;5089194;28;20650;-73
2022/12/20 06:30:20;;;;;;;;;;;;;;;9.81;100.00;101030.19;5088551;28;20209;-73
2022/12/20 06:32:46;;;;;;;;;;;;;;;9.76;100.00;101038.53;5088228;28;19922;-74
2022/12/20 06:35:11;;;;;;;;;;;;;;;9.76;100.00;101035.06;5091400;28;19919;-74
2022/12/20 06:37:39;;;;;;;;;;;;;;;9.79;100.00;101038.22;5088722;28;20293;-73
2022/12/20 06:40:04;;;;;;;;;;;;;;;9.78;100.00;101028.69;5087687;28;19955;-73
2022/12/20 06:42:30;;;;;;;;;;;;;;;9.76;100.00;101027.97;5088856;28;19955;-74
2022/12/20 06:44:55;;;;;;;;;;;;;;;9.81;100.00;101030.19;5089305;28;20064;-74
2022/12/20 06:47:20;;;;;;;;;;;;;;;9.87;100.00;101034.91;5089098;28;19916;-73
2022/12/20 06:49:46;;;;;;;;;;;;;;;9.91;100.00;101027.53;5086506;28;19915;-74
2022/12/20 06:52:11;;;;;;;;;;;;;;;9.92;100.00;101029.22;5086149;28;19961;-74
2022/12/20 06:54:36;;;;;;;;;;;;;;;9.95;100.00;101019.22;5084969;28;19919;-74
2022/12/20 06:57:01;;;;;;;;;;;;;;;9.97;100.00;101019.88;5087695;28;20349;-74
2022/12/20 06:59:27;;;;;;;;;;;;;;;10.00;100.00;101013.53;5089155;28;20436;-74
2022/12/20 07:01:52;;;;;;;;;;;;;;;10.00;100.00;101021.44;5088390;28;19972;-74
2022/12/20 07:04:18;;;;;;;;;;;;;;;10.02;100.00;101016.84;5088662;28;20316;-74
2022/12/20 07:06:43;;;;;;;;;;;;;;;9.99;100.00;101011.84;5088893;28;19924;-74
2022/12/20 07:09:08;;;;;;;;;;;;;;;9.92;100.00;101019.50;5085151;28;20334;-72
2022/12/20 07:11:34;;;;;;;;;;;;;;;9.95;100.00;101013.09;5087031;28;19993;-73
2022/12/20 07:13:59;;;;;;;;;;;;;;;9.93;100.00;101022.94;5084486;28;19916;-73
2022/12/20 07:16:25;;;;;;;;;;;;;;;9.97;100.00;101013.78;5088057;28;20263;-74
2022/12/20 07:18:51;;;;;;;;;;;;;;;9.93;100.00;101008.00;5086836;28;20399;-73
2022/12/20 07:21:18;;;;;;;;;;;;;;;9.94;100.00;101019.34;5087580;28;20278;-74
2022/12/20 07:23:43;;;;;;;;;;;;;;;9.95;100.00;101021.84;5086443;28;19912;-74
2022/12/20 07:26:08;;;;;;;;;;;;;;;9.95;100.00;101028.91;5086725;28;19919;-73
2022/12/20 07:28:34;;;;;;;;;;;;;;;9.85;100.00;101035.03;5087060;28;19916;-73
2022/12/20 07:31:00;;;;;;;;;;;;;;;9.80;100.00;101039.91;5086439;28;19963;-74
2022/12/20 07:33:25;;;;;;;;;;;;;;;9.73;100.00;101035.31;5087071;28;20143;-73
2022/12/20 07:35:50;;;;;;;;;;;;;;;9.68;100.00;101046.28;5088063;28;20216;-73
2022/12/20 07:38:16;;;;;;;;;;;;;;;9.67;100.00;101055.19;5088413;28;19965;-73
2022/12/20 07:40:42;;;;;;;;;;;;;;;9.66;100.00;101066.69;5086885;28;19951;-74
2022/12/20 07:43:10;;;;;;;;;;;;;;;9.63;100.00;101077.50;5087085;28;19912;-74
2022/12/20 07:45:36;;;;;;;;;;;;;;;9.62;100.00;101083.72;5093595;28;19924;-73
2022/12/20 07:48:01;;;;;;;;;;;;;;;9.59;100.00;101084.84;5086673;28;19922;-73
2022/12/20 07:50:27;;;;;;;;;;;;;;;9.61;100.00;101071.53;5087804;28;19916;-74
2022/12/20 07:52:53;;;;;;;;;;;;;;;9.64;100.00;101087.88;5087333;28;19920;-74
2022/12/20 07:55:18;;;;;;;;;;;;;;;9.67;100.00;101078.91;5086717;28;19916;-74
2022/12/20 07:57:46;;;;;;;;;;;;;;;9.72;100.00;101091.66;5085877;28;19938;-74
2022/12/20 08:00:12;;;;;;;;;;;;;;;9.68;100.00;101089.28;5092428;28;19916;-73
2022/12/20 08:02:41;;;;;;;;;;;;;;;9.69;100.00;101090.13;5084603;28;20256;-73
2022/12/20 08:05:08;;;;;;;;;;;;;;;9.68;100.00;101084.00;5086661;28;20012;-73
2022/12/20 08:07:35;;;;;;;;;;;;;;;9.73;100.00;101088.88;5087200;28;19946;-74
2022/12/20 08:10:01;;;;;;;;;;;;;;;9.70;100.00;101083.88;5086101;28;19916;-73
2022/12/20 08:12:28;;;;;;;;;;;;;;;9.67;100.00;101082.38;5087012;28;19916;-74
2022/12/20 08:14:55;;;;;;;;;;;;;;;9.71;100.00;101093.44;5085687;28;20247;-74
2022/12/20 08:17:20;;;;;;;;;;;;;;;9.73;100.00;101088.03;5087102;28;19920;-74
2022/12/20 08:19:46;;;;;;;;;;;;;;;9.79;100.00;101085.69;5088588;28;20279;-74
2022/12/20 08:22:11;;;;;;;;;;;;;;;9.80;100.00;101094.41;5069050;28;20006;-73
2022/12/20 08:24:36;;;;;;;;;;;;;;;9.81;100.00;101099.56;5085959;28;20011;-75
2022/12/20 08:27:02;;;;;;;;;;;;;;;9.83;100.00;101096.78;5085270;28;20034;-74
2022/12/20 08:29:27;;;;;;;;;;;;;;;9.83;100.00;101087.06;5085162;28;19955;-74
2022/12/20 08:31:52;;;;;;;;;;;;;;;9.86;100.00;101086.81;5086718;28;19916;-74
2022/12/20 08:34:18;;;;;;;;;;;;;;;9.87;100.00;101093.72;5092557;28;19916;-74
2022/12/20 08:36:43;;;;;;;;;;;;;;;9.93;100.00;101091.50;5086773;28;19976;-74
2022/12/20 08:39:10;;;;;;;;;;;;;;;9.93;100.00;101086.22;5086565;28;19919;-74
2022/12/20 08:41:36;;;;;;;;;;;;;;;10.00;100.00;101071.53;5085950;28;19961;-74
2022/12/20 08:44:01;;;;;;;;;;;;;;;10.01;100.00;101062.63;5083240;28;19919;-74
2022/12/20 08:46:26;;;;;;;;;;;;;;;10.04;100.00;101041.28;5085247;28;19945;-74
2022/12/20 08:48:52;;;;;;;;;;;;;;;9.99;100.00;101052.22;5086611;28;20026;-73
2022/12/20 08:51:17;;;;;;;;;;;;;;;10.05;100.00;101042.94;5088312;28;19967;-73
2022/12/20 08:53:42;;;;;;;;;;;;;;;10.04;100.00;101026.28;5086515;28;19996;-74
2022/12/20 08:56:09;;;;;;;;;;;;;;;10.06;100.00;101031.38;5086960;28;19963;-74
2022/12/20 08:58:35;;;;;;;;;;;;;;;10.02;100.00;101020.31;5084403;28;19911;-74
2022/12/20 09:01:00;;;;;;;;;;;;;;;9.95;100.00;101026.28;5086270;28;20452;-74
2022/12/20 09:03:28;;;;;;;;;;;;;;;9.94;100.00;101027.25;5087275;28;20413;-74
2022/12/20 09:05:54;;;;;;;;;;;;;;;9.93;100.00;101013.25;5087053;28;19950;-74
2022/12/20 09:08:19;;;;;;;;;;;;;;;9.98;100.00;101020.75;5087896;28;19928;-74
2022/12/20 09:10:44;;;;;;;;;;;;;;;9.99;100.00;101025.03;5087712;28;20437;-74
2022/12/20 09:13:10;;;;;;;;;;;;;;;9.96;100.00;101012.13;5069040;28;19920;-74
2022/12/20 09:15:35;;;;;;;;;;;;;;;10.02;100.00;101014.22;5089480;28;20344;-74
2022/12/20 09:18:01;;;;;;;;;;;;;;;10.06;100.00;101002.38;5090613;28;19941;-74
2022/12/20 09:20:27;;;;;;;;;;;;;;;10.09;100.00;101004.75;5090574;28;20129;-74
2022/12/20 09:22:52;;;;;;;;;;;;;;;10.11;100.00;100994.91;5091042;28;20033;-73
2022/12/20 09:25:17;;;;;;;;;;;;;;;10.12;100.00;100999.19;5079118;28;19916;-74
2022/12/20 09:27:43;;;;;;;;;;;;;;;10.19;100.00;100997.66;5090482;28;19989;-73
2022/12/20 09:30:09;;;;;;;;;;;;;;;10.20;100.00;100987.91;5090626;28;20019;-74
2022/12/20 09:32:34;;;;;;;;;;;;;;;10.19;100.00;100970.41;5088634;28;20180;-74
2022/12/20 09:35:00;;;;;;;;;;;;;;;10.29;100.00;100966.81;5087840;28;20018;-74
2022/12/20 09:37:28;;;;;;;;;;;;;;;10.28;100.00;100973.03;5089537;28;19923;-74
2022/12/20 09:39:53;;;;;;;;;;;;;;;10.25;100.00;100967.22;5090185;28;20004;-74
2022/12/20 09:42:21;;;;;;;;;;;;;;;10.26;100.00;100961.81;5089239;28;19973;-74
2022/12/20 09:44:47;;;;;;;;;;;;;;;10.34;100.00;100968.19;5088605;28;19919;-74
2022/12/20 09:47:20;;;;;;;;;;;;;;;10.36;100.00;100955.69;5089280;28;19928;-75
2022/12/20 09:49:48;;;;;;;;;;;;;;;10.37;100.00;100957.34;5096023;28;19934;-74
2022/12/20 09:52:14;;;;;;;;;;;;;;;10.41;100.00;100963.97;5090436;28;19954;-73
2022/12/20 09:54:51;;;;;;;;;;;;;;;10.46;100.00;100956.47;5090109;28;19971;-73
2022/12/20 09:57:35;;;;;;;;;;;;;;;10.51;100.00;100954.22;5089746;28;19918;-74
2022/12/20 10:00:00;;;;;;;;;;;;;;;10.57;100.00;100940.44;5089562;28;19912;-73
2022/12/20 10:02:28;;;;;;;;;;;;;;;10.66;100.00;100941.34;5090077;28;20359;-73
2022/12/20 10:04:54;;;;;;;;;;;;;;;10.61;100.00;100933.06;5089724;28;19962;-74
2022/12/20 10:07:25;;;;;;;;;;;;;;;10.67;100.00;100938.56;5087605;28;20076;-74
2022/12/20 10:09:51;;;;;;;;;;;;;;;10.67;100.00;100937.75;5090675;28;20518;-74
2022/12/20 10:12:34;;;;;;;;;;;;;;;10.65;100.00;100924.69;5090098;28;19912;-74
2022/12/20 10:15:00;;;;;;;;;;;;;;;10.64;100.00;100922.19;5088381;28;19918;-74
2022/12/20 10:17:44;;;;;;;;;;;;;;;10.62;100.00;100914.41;5089242;28;20306;-74
2022/12/20 10:20:18;;;;;;;;;;;;;;;10.63;100.00;100921.38;5089314;28;19926;-74
2022/12/20 10:22:53;;;;;;;;;;;;;;;10.64;100.00;100922.19;5089132;28;20018;-75
2022/12/20 10:25:23;;;;;;;;;;;;;;;10.64;100.00;100920.38;5088219;28;20247;-74
2022/12/20 10:27:49;;;;;;;;;;;;;;;10.62;100.00;100926.78;5087705;28;19919;-73
2022/12/20 10:30:21;;;;;;;;;;;;;;;10.65;100.00;100929.16;5088265;28;19955;-74
2022/12/20 10:32:48;;;;;;;;;;;;;;;10.65;100.00;100924.69;5088131;28;19911;-74
2022/12/20 10:35:13;;;;;;;;;;;;;;;10.64;100.00;100932.75;5087624;28;20703;-74
2022/12/20 10:37:54;;;;;;;;;;;;;;;10.63;100.00;100921.38;5087790;28;20132;-74
2022/12/20 10:40:28;;;;;;;;;;;;;;;10.63;100.00;100921.38;5088883;28;19919;-74
2022/12/20 10:42:53;;;;;;;;;;;;;;;10.67;100.00;100916.63;5088121;28;20299;-73
2022/12/20 10:45:22;;;;;;;;;;;;;;;10.66;100.00;100910.50;5086619;28;19923;-74
2022/12/20 10:47:49;;;;;;;;;;;;;;;10.74;100.00;100912.41;5087478;28;20007;-74
2022/12/20 10:50:16;;;;;;;;;;;;;;;10.69;100.00;100904.94;5087792;28;20145;-74
2022/12/20 10:52:42;;;;;;;;;;;;;;;10.72;100.00;100898.53;5088265;28;19918;-74
2022/12/20 10:55:26;;;;;;;;;;;;;;;10.78;100.00;100902.38;5087409;28;20390;-74
2022/12/20 10:57:51;;;;;;;;;;;;;;;10.72;100.00;100897.72;5088799;28;19919;-74
2022/12/20 11:00:28;;;;;;;;;;;;;;;10.85;100.00;100898.16;5088375;28;19916;-74
2022/12/20 11:03:12;;;;;;;;;;;;;;;10.77;100.00;100906.81;5088390;28;20020;-74
2022/12/20 11:05:38;;;;;;;;;;;;;;;10.78;100.00;100903.22;5087726;28;19916;-74
2022/12/20 11:08:11;;;;;;;;;;;;;;;10.86;100.00;100897.16;5093772;28;19927;-74
2022/12/20 11:10:36;;;;;;;;;;;;;;;10.77;100.00;100883.06;5087804;28;20007;-74
2022/12/20 11:13:03;;;;;;;;;;;;;;;10.82;100.00;100877.31;5087957;28;20010;-74
2022/12/20 11:15:47;;;;;;;;;;;;;;;10.80;100.00;100890.69;5087860;28;20277;-74
2022/12/20 11:18:18;;;;;;;;;;;;;;;10.83;100.00;100884.28;5088941;28;19920;-74
2022/12/20 11:20:50;;;;;;;;;;;;;;;10.84;100.00;100885.94;5085630;28;20006;-74
2022/12/20 11:23:16;;;;;;;;;;;;;;;10.81;100.00;100894.16;5083905;28;20447;-74
2022/12/20 11:26:00;;;;;;;;;;;;;;;10.68;100.00;100887.44;5084018;28;20027;-74
2022/12/20 11:28:45;;;;;;;;;;;;;;;10.70;100.00;100890.75;5084683;28;19919;-74
2022/12/20 11:31:17;;;;;;;;;;;;;;;10.56;100.00;100893.94;5083148;28;19960;-74
2022/12/20 11:34:02;;;;;;;;;;;;;;;10.46;100.00;100898.41;5084959;28;19919;-74
2022/12/20 11:36:30;;;;;;;;;;;;;;;10.41;100.00;100908.56;5082471;28;19997;-74
2022/12/20 11:39:17;;;;;;;;;;;;;;;10.36;100.00;100913.47;5090890;28;19923;-73
2022/12/20 11:42:08;;;;;;;;;;;;;;;10.47;100.00;100910.63;5083850;28;20090;-74
2022/12/20 11:44:51;;;;;;;;;;;;;;;10.39;100.00;100923.75;5077046;28;19916;-74
2022/12/20 11:47:35;;;;;;;;;;;;;;;10.45;100.00;100928.41;5083946;28;20006;-74
2022/12/20 11:50:10;;;;;;;;;;;;;;;10.44;100.00;100929.41;5083144;28;19918;-74
2022/12/20 11:52:35;;;;;;;;;;;;;;;10.42;100.00;100923.44;5082786;28;19912;-74
2022/12/20 11:55:03;;;;;;;;;;;;;;;10.37;100.00;100920.41;5083534;28;20395;-73
2022/12/20 11:57:33;;;;;;;;;;;;;;;10.43;100.00;100915.38;5081515;28;20581;-74
2022/12/20 12:00:00;;;;;;;;;;;;;;;10.41;100.00;100916.47;5084009;28;20289;-74
2022/12/20 12:02:25;;;;;;;;;;;;;;;10.48;100.00;100925.50;5083823;28;20369;-74
2022/12/20 12:04:55;;;;;;;;;;;;;;;10.44;100.00;100916.22;5082861;28;20166;-74
2022/12/20 12:07:25;;;;;;;;;;;;;;;10.37;100.00;100904.59;5082812;28;20037;-74
2022/12/20 12:09:53;;;;;;;;;;;;;;;10.38;100.00;100919.44;5089888;28;19912;-74
2022/12/20 12:12:32;;;;;;;;;;;;;;;10.36;100.00;100926.66;5083793;28;19916;-74
2022/12/20 12:14:57;;;;;;;;;;;;;;;10.39;100.00;100919.28;5083438;28;20375;-74
2022/12/20 12:17:26;;;;;;;;;;;;;;;10.35;100.00;100917.09;5083597;28;20355;-74
2022/12/20 12:19:54;;;;;;;;;;;;;;;10.41;100.00;100912.06;5083386;28;20454;-73
2022/12/20 12:22:23;;;;;;;;;;;;;;;10.33;100.00;100911.13;5084086;28;19959;-74
2022/12/20 12:24:51;;;;;;;;;;;;;;;10.26;100.00;100924.88;5083289;28;20161;-74
2022/12/20 12:27:24;;;;;;;;;;;;;;;10.32;100.00;100931.38;5082909;28;20635;-74
2022/12/20 12:29:53;;;;;;;;;;;;;;;10.34;100.00;100926.78;5082105;28;20178;-74
2022/12/20 12:32:29;;;;;;;;;;;;;;;10.37;100.00;100925.69;5083737;28;19937;-73
2022/12/20 12:34:54;;;;;;;;;;;;;;;10.30;100.00;100936.00;5081751;28;19994;-74
2022/12/20 12:37:22;;;;;;;;;;;;;;;10.31;100.00;100929.75;5083930;28;19935;-73
2022/12/20 12:39:50;;;;;;;;;;;;;;;10.37;100.00;100934.44;5082784;28;20335;-74
2022/12/20 12:42:25;;;;;;;;;;;;;;;10.31;100.00;100936.81;5082713;28;19915;-74